sensor_id;sensor_type;location;lat;lon;timestamp;pressure;altitude;pressure_sealevel;temperature;humidity
61474;BME280;53694;49.784;30.150;2023-04-07T00:00:11;99497.89;;;6.28;67.62
61474;BME280;53694;49.784;30.150;2023-04-07T00:01:13;99489.51;;;5.99;68.71
61474;BME280;53694;49.784;30.150;2023-04-07T00:02:14;99498.66;;;5.74;69.72
61474;BME280;53694;49.784;30.150;2023-04-07T00:03:16;99497.85;;;5.53;70.63
61474;BME280;53694;49.784;30.150;2023-04-07T00:04:17;99493.16;;;5.32;71.48
61474;BME280;53694;49.784;30.150;2023-04-07T00:05:19;99496.44;;;5.17;72.27
61474;BME280;53694;49.784;30.150;2023-04-07T00:06:20;99494.25;;;5.10;72.98
61474;BME280;53694;49.784;30.150;2023-04-07T00:07:22;99487.96;;;5.18;72.94
61474;BME280;53694;49.784;30.150;2023-04-07T00:08:23;99492.97;;;5.37;72.66
61474;BME280;53694;49.784;30.150;2023-04-07T00:09:25;99490.86;;;5.64;71.71
61474;BME280;53694;49.784;30.150;2023-04-07T00:10:26;99493.07;;;5.91;70.78
61474;BME280;53694;49.784;30.150;2023-04-07T00:11:28;99494.94;;;6.20;70.02
61474;BME280;53694;49.784;30.150;2023-04-07T00:12:30;99506.03;;;6.48;68.84
61474;BME280;53694;49.784;30.150;2023-04-07T00:13:31;99508.03;;;6.72;67.82
61474;BME280;53694;49.784;30.150;2023-04-07T00:14:32;99504.87;;;6.95;67.11
61474;BME280;53694;49.784;30.150;2023-04-07T00:15:34;99498.75;;;7.10;66.19
61474;BME280;53694;49.784;30.150;2023-04-07T00:16:36;99505.00;;;7.11;66.10
61474;BME280;53694;49.784;30.150;2023-04-07T00:17:37;99507.73;;;6.98;66.24
61474;BME280;53694;49.784;30.150;2023-04-07T00:18:39;99509.88;;;6.81;66.53
61474;BME280;53694;49.784;30.150;2023-04-07T00:19:40;99499.25;;;6.55;66.93
61474;BME280;53694;49.784;30.150;2023-04-07T00:20:42;99502.11;;;6.25;67.48
61474;BME280;53694;49.784;30.150;2023-04-07T00:21:43;99505.86;;;5.99;68.46
61474;BME280;53694;49.784;30.150;2023-04-07T00:22:45;99506.49;;;5.75;69.26
61474;BME280;53694;49.784;30.150;2023-04-07T00:23:46;99504.41;;;5.51;70.16
61474;BME280;53694;49.784;30.150;2023-04-07T00:24:48;99512.87;;;5.29;71.00
61474;BME280;53694;49.784;30.150;2023-04-07T00:25:49;99510.24;;;5.12;71.70
61474;BME280;53694;49.784;30.150;2023-04-07T00:26:51;99513.01;;;5.03;72.23
61474;BME280;53694;49.784;30.150;2023-04-07T00:27:53;99508.66;;;5.11;72.38
61474;BME280;53694;49.784;30.150;2023-04-07T00:28:54;99507.91;;;5.31;72.19
61474;BME280;53694;49.784;30.150;2023-04-07T00:29:56;99513.52;;;5.56;71.18
61474;BME280;53694;49.784;30.150;2023-04-07T00:30:57;99520.05;;;5.84;70.36
61474;BME280;53694;49.784;30.150;2023-04-07T00:31:59;99518.07;;;6.14;69.78
61474;BME280;53694;49.784;30.150;2023-04-07T00:33:01;99515.36;;;6.47;68.93
61474;BME280;53694;49.784;30.150;2023-04-07T00:34:02;99516.34;;;6.76;67.52
61474;BME280;53694;49.784;30.150;2023-04-07T00:35:04;99515.34;;;6.93;65.83
61474;BME280;53694;49.784;30.150;2023-04-07T00:36:06;99527.86;;;6.94;65.39
61474;BME280;53694;49.784;30.150;2023-04-07T00:37:08;99516.44;;;6.80;65.01
61474;BME280;53694;49.784;30.150;2023-04-07T00:38:09;99514.47;;;6.56;65.36
61474;BME280;53694;49.784;30.150;2023-04-07T00:39:11;99511.53;;;6.28;66.02
61474;BME280;53694;49.784;30.150;2023-04-07T00:40:13;99508.59;;;5.99;66.68
61474;BME280;53694;49.784;30.150;2023-04-07T00:41:15;99509.08;;;5.72;67.64
61474;BME280;53694;49.784;30.150;2023-04-07T00:42:17;99512.46;;;5.48;68.46
61474;BME280;53694;49.784;30.150;2023-04-07T00:43:18;99522.38;;;5.23;69.15
61474;BME280;53694;49.784;30.150;2023-04-07T00:44:20;99520.56;;;4.97;69.95
61474;BME280;53694;49.784;30.150;2023-04-07T00:45:21;99523.20;;;4.76;70.76
61474;BME280;53694;49.784;30.150;2023-04-07T00:46:23;99516.52;;;4.57;71.39
61474;BME280;53694;49.784;30.150;2023-04-07T00:47:25;99521.51;;;4.37;72.03
61474;BME280;53694;49.784;30.150;2023-04-07T00:48:26;99523.14;;;4.30;72.67
61474;BME280;53694;49.784;30.150;2023-04-07T00:49:28;99520.72;;;4.37;72.76
61474;BME280;53694;49.784;30.150;2023-04-07T00:50:30;99523.55;;;4.58;72.47
61474;BME280;53694;49.784;30.150;2023-04-07T00:51:31;99525.89;;;4.85;71.68
61474;BME280;53694;49.784;30.150;2023-04-07T00:52:33;99527.52;;;5.16;70.74
61474;BME280;53694;49.784;30.150;2023-04-07T00:53:34;99523.67;;;5.46;69.80
61474;BME280;53694;49.784;30.150;2023-04-07T00:54:38;99526.02;;;5.77;68.84
61474;BME280;53694;49.784;30.150;2023-04-07T00:55:39;99527.60;;;6.08;67.72
61474;BME280;53694;49.784;30.150;2023-04-07T00:56:41;99533.35;;;6.28;66.94
61474;BME280;53694;49.784;30.150;2023-04-07T00:57:43;99528.95;;;6.35;66.65
61474;BME280;53694;49.784;30.150;2023-04-07T00:58:44;99534.63;;;6.30;66.57
61474;BME280;53694;49.784;30.150;2023-04-07T00:59:46;99531.36;;;6.16;66.78
61474;BME280;53694;49.784;30.150;2023-04-07T01:00:50;99541.61;;;5.98;67.28
61474;BME280;53694;49.784;30.150;2023-04-07T01:02:01;99538.84;;;5.77;67.88
61474;BME280;53694;49.784;30.150;2023-04-07T01:03:05;99541.55;;;5.56;68.49
61474;BME280;53694;49.784;30.150;2023-04-07T01:04:11;99534.31;;;5.31;69.14
61474;BME280;53694;49.784;30.150;2023-04-07T01:05:15;99534.59;;;5.08;69.77
61474;BME280;53694;49.784;30.150;2023-04-07T01:06:19;99538.82;;;4.88;70.48
61474;BME280;53694;49.784;30.150;2023-04-07T01:07:28;99544.31;;;4.71;71.14
61474;BME280;53694;49.784;30.150;2023-04-07T01:08:37;99551.42;;;4.55;72.03
61474;BME280;53694;49.784;30.150;2023-04-07T01:09:42;99549.52;;;4.46;72.49
61474;BME280;53694;49.784;30.150;2023-04-07T01:10:50;99542.44;;;4.54;72.54
61474;BME280;53694;49.784;30.150;2023-04-07T01:12:09;99548.48;;;4.77;72.20
61474;BME280;53694;49.784;30.150;2023-04-07T01:13:18;99548.69;;;5.10;71.54
61474;BME280;53694;49.784;30.150;2023-04-07T01:14:17;99549.13;;;5.50;70.10
61474;BME280;53694;49.784;30.150;2023-04-07T01:15:21;99550.52;;;5.86;69.09
61474;BME280;53694;49.784;30.150;2023-04-07T01:16:37;99551.27;;;6.16;67.96
61474;BME280;53694;49.784;30.150;2023-04-07T01:17:44;99550.70;;;6.44;66.70
61474;BME280;53694;49.784;30.150;2023-04-07T01:18:47;99550.20;;;6.63;65.54
61474;BME280;53694;49.784;30.150;2023-04-07T01:20:02;99552.01;;;6.59;65.17
61474;BME280;53694;49.784;30.150;2023-04-07T01:21:06;99552.15;;;6.41;65.23
61474;BME280;53694;49.784;30.150;2023-04-07T01:22:18;99558.63;;;6.16;65.97
61474;BME280;53694;49.784;30.150;2023-04-07T01:28:48;99564.16;;;4.80;70.28
61474;BME280;53694;49.784;30.150;2023-04-07T01:29:49;99568.03;;;4.62;71.01
61474;BME280;53694;49.784;30.150;2023-04-07T01:30:53;99562.16;;;4.42;71.55
61474;BME280;53694;49.784;30.150;2023-04-07T01:31:59;99564.55;;;4.35;72.29
61474;BME280;53694;49.784;30.150;2023-04-07T01:33:01;99568.84;;;4.45;72.46
61474;BME280;53694;49.784;30.150;2023-04-07T01:34:03;99564.33;;;4.66;71.94
61474;BME280;53694;49.784;30.150;2023-04-07T01:35:06;99563.62;;;4.95;71.28
61474;BME280;53694;49.784;30.150;2023-04-07T01:36:10;99563.02;;;5.28;70.33
61474;BME280;53694;49.784;30.150;2023-04-07T01:37:13;99558.98;;;5.64;69.03
61474;BME280;53694;49.784;30.150;2023-04-07T01:38:16;99568.28;;;5.92;67.36
61474;BME280;53694;49.784;30.150;2023-04-07T01:39:19;99567.29;;;6.18;66.71
61474;BME280;53694;49.784;30.150;2023-04-07T01:40:21;99569.87;;;6.35;66.03
61474;BME280;53694;49.784;30.150;2023-04-07T01:41:24;99570.45;;;6.41;65.53
61474;BME280;53694;49.784;30.150;2023-04-07T01:42:26;99576.67;;;6.29;65.39
61474;BME280;53694;49.784;30.150;2023-04-07T01:43:29;99567.02;;;6.11;65.85
61474;BME280;53694;49.784;30.150;2023-04-07T01:44:32;99575.16;;;5.90;66.49
61474;BME280;53694;49.784;30.150;2023-04-07T01:45:34;99574.67;;;5.67;66.98
61474;BME280;53694;49.784;30.150;2023-04-07T01:46:37;99568.58;;;5.40;67.60
61474;BME280;53694;49.784;30.150;2023-04-07T01:47:39;99578.11;;;5.17;68.51
61474;BME280;53694;49.784;30.150;2023-04-07T01:48:41;99578.02;;;4.96;69.34
61474;BME280;53694;49.784;30.150;2023-04-07T01:49:44;99573.94;;;4.72;69.87
61474;BME280;53694;49.784;30.150;2023-04-07T01:50:48;99577.79;;;4.54;70.63
61474;BME280;53694;49.784;30.150;2023-04-07T01:51:50;99580.23;;;4.38;71.51
61474;BME280;53694;49.784;30.150;2023-04-07T01:52:52;99577.35;;;4.26;72.11
61474;BME280;53694;49.784;30.150;2023-04-07T01:53:54;99573.67;;;4.22;72.68
61474;BME280;53694;49.784;30.150;2023-04-07T01:54:56;99583.09;;;4.33;72.72
61474;BME280;53694;49.784;30.150;2023-04-07T01:55:57;99577.95;;;4.58;72.40
61474;BME280;53694;49.784;30.150;2023-04-07T01:56:59;99586.21;;;4.87;71.44
61474;BME280;53694;49.784;30.150;2023-04-07T01:58:04;99584.35;;;5.17;70.00
61474;BME280;53694;49.784;30.150;2023-04-07T01:59:06;99589.52;;;5.48;69.12
61474;BME280;53694;49.784;30.150;2023-04-07T02:00:09;99586.11;;;5.81;68.19
61474;BME280;53694;49.784;30.150;2023-04-07T02:01:11;99589.03;;;6.06;67.19
61474;BME280;53694;49.784;30.150;2023-04-07T02:02:13;99588.97;;;6.14;66.59
61474;BME280;53694;49.784;30.150;2023-04-07T02:03:29;99586.89;;;6.11;66.45
61474;BME280;53694;49.784;30.150;2023-04-07T02:04:44;99583.30;;;5.98;66.65
61474;BME280;53694;49.784;30.150;2023-04-07T02:05:48;99589.63;;;5.82;67.08
61474;BME280;53694;49.784;30.150;2023-04-07T02:07:02;99599.89;;;5.55;67.75
61474;BME280;53694;49.784;30.150;2023-04-07T02:08:07;99604.47;;;5.34;68.34
61474;BME280;53694;49.784;30.150;2023-04-07T02:09:10;99594.48;;;5.08;69.16
61474;BME280;53694;49.784;30.150;2023-04-07T02:10:15;99600.31;;;4.89;69.67
61474;BME280;53694;49.784;30.150;2023-04-07T02:11:19;99596.80;;;4.71;70.30
61474;BME280;53694;49.784;30.150;2023-04-07T02:12:22;99590.30;;;4.55;70.97
61474;BME280;53694;49.784;30.150;2023-04-07T02:13:27;99590.77;;;4.40;71.69
61474;BME280;53694;49.784;30.150;2023-04-07T02:14:29;99587.42;;;4.34;72.03
61474;BME280;53694;49.784;30.150;2023-04-07T02:15:30;99596.04;;;4.45;72.17
61474;BME280;53694;49.784;30.150;2023-04-07T02:16:33;99587.22;;;4.65;71.69
61474;BME280;53694;49.784;30.150;2023-04-07T02:17:38;99591.97;;;4.94;71.08
61474;BME280;53694;49.784;30.150;2023-04-07T02:18:40;99588.66;;;5.27;70.22
61474;BME280;53694;49.784;30.150;2023-04-07T02:19:43;99586.22;;;5.64;69.02
61474;BME280;53694;49.784;30.150;2023-04-07T02:20:45;99590.55;;;5.94;67.67
61474;BME280;53694;49.784;30.150;2023-04-07T02:21:50;99584.58;;;6.22;66.66
61474;BME280;53694;49.784;30.150;2023-04-07T02:22:51;99590.02;;;6.43;66.03
61474;BME280;53694;49.784;30.150;2023-04-07T02:23:53;99588.67;;;6.49;65.36
61474;BME280;53694;49.784;30.150;2023-04-07T02:24:55;99597.73;;;6.41;65.26
61474;BME280;53694;49.784;30.150;2023-04-07T02:25:56;99598.66;;;6.24;65.66
61474;BME280;53694;49.784;30.150;2023-04-07T02:26:58;99595.28;;;6.06;66.03
61474;BME280;53694;49.784;30.150;2023-04-07T02:28:00;99596.36;;;5.84;66.48
61474;BME280;53694;49.784;30.150;2023-04-07T02:29:05;99595.52;;;5.63;67.20
61474;BME280;53694;49.784;30.150;2023-04-07T02:30:07;99604.77;;;5.41;67.80
61474;BME280;53694;49.784;30.150;2023-04-07T02:31:09;99596.03;;;5.18;68.24
61474;BME280;53694;49.784;30.150;2023-04-07T02:32:10;99595.94;;;4.97;69.04
61474;BME280;53694;49.784;30.150;2023-04-07T02:33:12;99593.60;;;4.78;69.90
61474;BME280;53694;49.784;30.150;2023-04-07T02:34:13;99599.53;;;4.63;70.61
61474;BME280;53694;49.784;30.150;2023-04-07T02:35:15;99593.15;;;4.50;71.18
61474;BME280;53694;49.784;30.150;2023-04-07T02:36:17;99595.75;;;4.38;71.33
61474;BME280;53694;49.784;30.150;2023-04-07T02:37:18;99596.68;;;4.33;71.72
61474;BME280;53694;49.784;30.150;2023-04-07T02:38:20;99589.34;;;4.42;71.86
61474;BME280;53694;49.784;30.150;2023-04-07T02:39:21;99605.47;;;4.65;71.61
61474;BME280;53694;49.784;30.150;2023-04-07T02:40:23;99599.34;;;4.94;70.72
61474;BME280;53694;49.784;30.150;2023-04-07T02:41:25;99600.20;;;5.24;69.92
61474;BME280;53694;49.784;30.150;2023-04-07T02:42:26;99607.87;;;5.60;69.15
61474;BME280;53694;49.784;30.150;2023-04-07T02:43:28;99608.52;;;5.95;68.13
61474;BME280;53694;49.784;30.150;2023-04-07T02:44:29;99605.61;;;6.21;67.09
61474;BME280;53694;49.784;30.150;2023-04-07T02:45:31;99610.64;;;6.32;66.41
61474;BME280;53694;49.784;30.150;2023-04-07T02:46:33;99615.30;;;6.31;65.86
61474;BME280;53694;49.784;30.150;2023-04-07T02:47:35;99606.60;;;6.17;65.67
61474;BME280;53694;49.784;30.150;2023-04-07T02:48:37;99602.38;;;5.98;66.05
61474;BME280;53694;49.784;30.150;2023-04-07T02:49:38;99608.11;;;5.76;66.40
61474;BME280;53694;49.784;30.150;2023-04-07T02:50:40;99606.81;;;5.53;67.14
61474;BME280;53694;49.784;30.150;2023-04-07T02:51:41;99606.25;;;5.30;67.90
61474;BME280;53694;49.784;30.150;2023-04-07T02:52:43;99610.47;;;5.10;68.53
61474;BME280;53694;49.784;30.150;2023-04-07T02:53:44;99610.40;;;4.89;69.28
61474;BME280;53694;49.784;30.150;2023-04-07T02:54:46;99612.66;;;4.69;70.02
61474;BME280;53694;49.784;30.150;2023-04-07T02:55:47;99611.55;;;4.53;70.64
61474;BME280;53694;49.784;30.150;2023-04-07T02:56:49;99601.98;;;4.38;71.27
61474;BME280;53694;49.784;30.150;2023-04-07T02:57:50;99606.76;;;4.33;71.82
61474;BME280;53694;49.784;30.150;2023-04-07T02:58:52;99614.91;;;4.41;71.89
61474;BME280;53694;49.784;30.150;2023-04-07T02:59:53;99616.69;;;4.63;71.72
61474;BME280;53694;49.784;30.150;2023-04-07T03:00:55;99621.75;;;4.91;71.12
61474;BME280;53694;49.784;30.150;2023-04-07T03:01:57;99616.87;;;5.22;70.14
61474;BME280;53694;49.784;30.150;2023-04-07T03:02:58;99617.03;;;5.56;69.28
61474;BME280;53694;49.784;30.150;2023-04-07T03:04:00;99622.28;;;5.90;68.44
61474;BME280;53694;49.784;30.150;2023-04-07T03:05:01;99615.23;;;6.19;67.11
61474;BME280;53694;49.784;30.150;2023-04-07T03:06:03;99615.58;;;6.38;66.31
61474;BME280;53694;49.784;30.150;2023-04-07T03:07:04;99617.44;;;6.46;65.74
61474;BME280;53694;49.784;30.150;2023-04-07T03:08:06;99620.34;;;6.41;65.76
61474;BME280;53694;49.784;30.150;2023-04-07T03:09:07;99620.31;;;6.29;65.81
61474;BME280;53694;49.784;30.150;2023-04-07T03:10:09;99615.30;;;6.10;66.14
61474;BME280;53694;49.784;30.150;2023-04-07T03:11:11;99625.35;;;5.89;66.59
61474;BME280;53694;49.784;30.150;2023-04-07T03:12:13;99622.13;;;5.66;67.15
61474;BME280;53694;49.784;30.150;2023-04-07T03:13:14;99626.71;;;5.44;67.69
61474;BME280;53694;49.784;30.150;2023-04-07T03:14:16;99616.72;;;5.19;68.34
61474;BME280;53694;49.784;30.150;2023-04-07T03:15:17;99620.77;;;4.95;68.71
61474;BME280;53694;49.784;30.150;2023-04-07T03:16:19;99631.53;;;4.74;69.20
61474;BME280;53694;49.784;30.150;2023-04-07T03:17:21;99619.41;;;4.55;69.94
61474;BME280;53694;49.784;30.150;2023-04-07T03:18:22;99625.95;;;4.36;70.85
61474;BME280;53694;49.784;30.150;2023-04-07T03:19:24;99627.87;;;4.18;71.69
61474;BME280;53694;49.784;30.150;2023-04-07T03:20:26;99634.88;;;4.02;72.44
61474;BME280;53694;49.784;30.150;2023-04-07T03:21:27;99638.09;;;3.95;73.09
61474;BME280;53694;49.784;30.150;2023-04-07T03:22:29;99640.02;;;4.04;73.26
61474;BME280;53694;49.784;30.150;2023-04-07T03:23:30;99632.52;;;4.26;73.04
61474;BME280;53694;49.784;30.150;2023-04-07T03:24:32;99633.94;;;4.59;72.43
61474;BME280;53694;49.784;30.150;2023-04-07T03:25:33;99636.15;;;4.91;71.57
61474;BME280;53694;49.784;30.150;2023-04-07T03:26:35;99632.88;;;5.24;70.78
61474;BME280;53694;49.784;30.150;2023-04-07T03:27:36;99645.22;;;5.60;69.82
61474;BME280;53694;49.784;30.150;2023-04-07T03:28:38;99643.30;;;5.90;68.79
61474;BME280;53694;49.784;30.150;2023-04-07T03:29:39;99648.61;;;6.16;67.72
61474;BME280;53694;49.784;30.150;2023-04-07T03:30:41;99649.63;;;6.32;66.91
61474;BME280;53694;49.784;30.150;2023-04-07T03:31:42;99649.31;;;6.34;66.56
61474;BME280;53694;49.784;30.150;2023-04-07T03:32:44;99649.38;;;6.25;66.59
61474;BME280;53694;49.784;30.150;2023-04-07T03:33:45;99648.22;;;6.05;66.88
61474;BME280;53694;49.784;30.150;2023-04-07T03:34:47;99653.79;;;5.79;67.42
61474;BME280;53694;49.784;30.150;2023-04-07T03:35:48;99658.08;;;5.50;68.18
61474;BME280;53694;49.784;30.150;2023-04-07T03:36:50;99653.70;;;5.20;69.04
61474;BME280;53694;49.784;30.150;2023-04-07T03:37:51;99654.89;;;4.93;69.88
61474;BME280;53694;49.784;30.150;2023-04-07T03:38:53;99661.47;;;4.66;70.91
61474;BME280;53694;49.784;30.150;2023-04-07T03:39:54;99657.16;;;4.39;71.90
61474;BME280;53694;49.784;30.150;2023-04-07T03:40:56;99666.25;;;4.17;72.77
61474;BME280;53694;49.784;30.150;2023-04-07T03:41:57;99672.63;;;4.04;73.58
61474;BME280;53694;49.784;30.150;2023-04-07T03:42:59;99665.74;;;4.06;74.00
61474;BME280;53694;49.784;30.150;2023-04-07T03:44:01;99672.00;;;4.24;74.04
61474;BME280;53694;49.784;30.150;2023-04-07T03:45:02;99670.76;;;4.47;73.64
61474;BME280;53694;49.784;30.150;2023-04-07T03:46:04;99657.14;;;4.73;73.04
61474;BME280;53694;49.784;30.150;2023-04-07T03:47:06;99663.99;;;5.06;72.24
61474;BME280;53694;49.784;30.150;2023-04-07T03:48:07;99670.32;;;5.36;71.29
61474;BME280;53694;49.784;30.150;2023-04-07T03:49:09;99664.92;;;5.65;70.55
61474;BME280;53694;49.784;30.150;2023-04-07T03:50:12;99668.48;;;5.95;69.45
61474;BME280;53694;49.784;30.150;2023-04-07T03:51:13;99670.25;;;6.21;68.47
61474;BME280;53694;49.784;30.150;2023-04-07T03:52:15;99665.61;;;6.42;67.45
61474;BME280;53694;49.784;30.150;2023-04-07T03:53:17;99668.52;;;6.58;66.75
61474;BME280;53694;49.784;30.150;2023-04-07T03:54:18;99675.45;;;6.56;66.21
61474;BME280;53694;49.784;30.150;2023-04-07T03:55:20;99673.00;;;6.42;66.20
61474;BME280;53694;49.784;30.150;2023-04-07T03:56:22;99682.61;;;6.18;66.63
61474;BME280;53694;49.784;30.150;2023-04-07T03:57:24;99681.63;;;5.93;67.16
61474;BME280;53694;49.784;30.150;2023-04-07T03:58:26;99673.41;;;5.64;68.04
61474;BME280;53694;49.784;30.150;2023-04-07T03:59:27;99677.36;;;5.37;68.84
61474;BME280;53694;49.784;30.150;2023-04-07T04:00:29;99684.47;;;5.12;69.71
61474;BME280;53694;49.784;30.150;2023-04-07T04:01:30;99683.54;;;4.90;70.48
61474;BME280;53694;49.784;30.150;2023-04-07T04:02:32;99686.58;;;4.71;71.24
61474;BME280;53694;49.784;30.150;2023-04-07T04:03:34;99690.13;;;4.55;71.85
61474;BME280;53694;49.784;30.150;2023-04-07T04:04:35;99692.81;;;4.46;72.32
61474;BME280;53694;49.784;30.150;2023-04-07T04:05:37;99681.80;;;4.51;72.65
61474;BME280;53694;49.784;30.150;2023-04-07T04:06:38;99693.48;;;4.69;72.57
61474;BME280;53694;49.784;30.150;2023-04-07T04:07:40;99687.55;;;4.93;72.09
61474;BME280;53694;49.784;30.150;2023-04-07T04:08:41;99695.00;;;5.22;71.44
61474;BME280;53694;49.784;30.150;2023-04-07T04:09:43;99700.53;;;5.51;70.26
61474;BME280;53694;49.784;30.150;2023-04-07T04:10:44;99692.73;;;5.80;69.49
61474;BME280;53694;49.784;30.150;2023-04-07T04:11:46;99693.91;;;6.08;68.70
61474;BME280;53694;49.784;30.150;2023-04-07T04:12:48;99702.38;;;6.36;67.80
61474;BME280;53694;49.784;30.150;2023-04-07T04:13:50;99700.02;;;6.56;66.73
61474;BME280;53694;49.784;30.150;2023-04-07T04:14:51;99701.27;;;6.58;66.19
61474;BME280;53694;49.784;30.150;2023-04-07T04:15:52;99703.13;;;6.45;65.84
61474;BME280;53694;49.784;30.150;2023-04-07T04:16:54;99700.70;;;6.23;66.29
61474;BME280;53694;49.784;30.150;2023-04-07T04:17:55;99709.03;;;5.97;66.99
61474;BME280;53694;49.784;30.150;2023-04-07T04:18:57;99703.19;;;5.69;67.76
61474;BME280;53694;49.784;30.150;2023-04-07T04:19:58;99706.80;;;5.43;68.61
61474;BME280;53694;49.784;30.150;2023-04-07T04:21:00;99703.34;;;5.17;69.33
61474;BME280;53694;49.784;30.150;2023-04-07T04:22:02;99702.59;;;4.90;70.05
61474;BME280;53694;49.784;30.150;2023-04-07T04:23:03;99717.47;;;4.67;71.00
61474;BME280;53694;49.784;30.150;2023-04-07T04:24:05;99715.06;;;4.48;71.96
61474;BME280;53694;49.784;30.150;2023-04-07T04:25:07;99714.56;;;4.37;72.75
61474;BME280;53694;49.784;30.150;2023-04-07T04:26:08;99721.45;;;4.43;73.17
61474;BME280;53694;49.784;30.150;2023-04-07T04:27:10;99709.47;;;4.62;73.07
61474;BME280;53694;49.784;30.150;2023-04-07T04:28:11;99711.39;;;4.87;72.64
61474;BME280;53694;49.784;30.150;2023-04-07T04:29:13;99712.80;;;5.19;72.04
61474;BME280;53694;49.784;30.150;2023-04-07T04:30:15;99710.17;;;5.49;71.23
61474;BME280;53694;49.784;30.150;2023-04-07T04:31:17;99717.72;;;5.82;70.42
61474;BME280;53694;49.784;30.150;2023-04-07T04:32:19;99722.12;;;6.12;69.18
61474;BME280;53694;49.784;30.150;2023-04-07T04:33:20;99719.37;;;6.42;68.27
61474;BME280;53694;49.784;30.150;2023-04-07T04:34:22;99720.64;;;6.65;66.57
61474;BME280;53694;49.784;30.150;2023-04-07T04:35:24;99723.09;;;6.79;66.34
61474;BME280;53694;49.784;30.150;2023-04-07T04:36:25;99716.98;;;6.82;66.02
61474;BME280;53694;49.784;30.150;2023-04-07T04:37:27;99710.20;;;6.67;65.58
61474;BME280;53694;49.784;30.150;2023-04-07T04:38:34;99714.97;;;6.49;65.73
61474;BME280;53694;49.784;30.150;2023-04-07T04:39:36;99714.83;;;6.25;66.55
61474;BME280;53694;49.784;30.150;2023-04-07T04:40:37;99717.55;;;5.95;66.92
61474;BME280;53694;49.784;30.150;2023-04-07T04:41:39;99718.59;;;5.65;67.81
61474;BME280;53694;49.784;30.150;2023-04-07T04:42:40;99719.00;;;5.37;68.87
61474;BME280;53694;49.784;30.150;2023-04-07T04:43:42;99721.45;;;5.13;69.79
61474;BME280;53694;49.784;30.150;2023-04-07T04:44:43;99726.59;;;4.88;70.54
61474;BME280;53694;49.784;30.150;2023-04-07T04:45:46;99734.28;;;4.69;71.38
61474;BME280;53694;49.784;30.150;2023-04-07T04:46:47;99731.05;;;4.49;72.19
61474;BME280;53694;49.784;30.150;2023-04-07T04:47:49;99741.13;;;4.40;72.74
61474;BME280;53694;49.784;30.150;2023-04-07T04:48:51;99736.02;;;4.47;73.12
61474;BME280;53694;49.784;30.150;2023-04-07T04:49:52;99727.55;;;4.66;72.95
61474;BME280;53694;49.784;30.150;2023-04-07T04:50:54;99737.33;;;4.93;72.28
61474;BME280;53694;49.784;30.150;2023-04-07T04:51:55;99727.03;;;5.25;71.70
61474;BME280;53694;49.784;30.150;2023-04-07T04:52:57;99728.41;;;5.57;70.83
61474;BME280;53694;49.784;30.150;2023-04-07T04:53:58;99736.14;;;5.93;69.74
61474;BME280;53694;49.784;30.150;2023-04-07T04:55:00;99734.91;;;6.20;68.20
61474;BME280;53694;49.784;30.150;2023-04-07T04:56:01;99742.94;;;6.46;67.46
61474;BME280;53694;49.784;30.150;2023-04-07T04:57:03;99739.60;;;6.62;66.64
61474;BME280;53694;49.784;30.150;2023-04-07T04:58:04;99747.47;;;6.63;66.38
61474;BME280;53694;49.784;30.150;2023-04-07T04:59:06;99736.00;;;6.49;66.29
61474;BME280;53694;49.784;30.150;2023-04-07T05:00:08;99739.38;;;6.25;66.77
61474;BME280;53694;49.784;30.150;2023-04-07T05:01:13;99748.14;;;6.01;67.55
61474;BME280;53694;49.784;30.150;2023-04-07T05:02:14;99743.91;;;5.74;68.39
61474;BME280;53694;49.784;30.150;2023-04-07T05:03:16;99744.29;;;5.46;69.14
61474;BME280;53694;49.784;30.150;2023-04-07T05:04:17;99740.03;;;5.19;69.88
61474;BME280;53694;49.784;30.150;2023-04-07T05:05:19;99741.65;;;4.94;70.38
61474;BME280;53694;49.784;30.150;2023-04-07T05:06:21;99747.26;;;4.72;71.29
61474;BME280;53694;49.784;30.150;2023-04-07T05:07:22;99748.04;;;4.55;72.05
61474;BME280;53694;49.784;30.150;2023-04-07T05:08:24;99750.75;;;4.46;72.78
61474;BME280;53694;49.784;30.150;2023-04-07T05:09:25;99753.78;;;4.54;73.20
61474;BME280;53694;49.784;30.150;2023-04-07T05:10:27;99753.16;;;4.74;73.17
61474;BME280;53694;49.784;30.150;2023-04-07T05:11:28;99757.18;;;5.03;72.79
61474;BME280;53694;49.784;30.150;2023-04-07T05:12:30;99747.38;;;5.36;71.73
61474;BME280;53694;49.784;30.150;2023-04-07T05:13:31;99747.13;;;5.67;70.58
61474;BME280;53694;49.784;30.150;2023-04-07T05:14:33;99750.41;;;5.99;69.48
61474;BME280;53694;49.784;30.150;2023-04-07T05:15:34;99751.22;;;6.29;68.30
61474;BME280;53694;49.784;30.150;2023-04-07T05:16:36;99763.91;;;6.55;67.50
61474;BME280;53694;49.784;30.150;2023-04-07T05:17:37;99754.12;;;6.74;66.48
61474;BME280;53694;49.784;30.150;2023-04-07T05:18:39;99763.59;;;6.77;66.16
61474;BME280;53694;49.784;30.150;2023-04-07T05:19:40;99762.37;;;6.66;65.69
61474;BME280;53694;49.784;30.150;2023-04-07T05:20:43;99758.51;;;6.46;66.05
61474;BME280;53694;49.784;30.150;2023-04-07T05:21:44;99757.98;;;6.23;66.63
61474;BME280;53694;49.784;30.150;2023-04-07T05:22:46;99763.22;;;5.98;67.39
61474;BME280;53694;49.784;30.150;2023-04-07T05:23:47;99766.16;;;5.76;68.28
61474;BME280;53694;49.784;30.150;2023-04-07T05:24:49;99764.80;;;5.53;69.09
61474;BME280;53694;49.784;30.150;2023-04-07T05:25:50;99764.19;;;5.30;69.72
61474;BME280;53694;49.784;30.150;2023-04-07T05:26:52;99765.34;;;5.11;70.50
61474;BME280;53694;49.784;30.150;2023-04-07T05:27:53;99768.86;;;4.94;71.36
61474;BME280;53694;49.784;30.150;2023-04-07T05:28:55;99775.73;;;4.83;72.14
61474;BME280;53694;49.784;30.150;2023-04-07T05:29:56;99772.05;;;4.79;72.88
61474;BME280;53694;49.784;30.150;2023-04-07T05:30:58;99774.77;;;4.88;73.03
61474;BME280;53694;49.784;30.150;2023-04-07T05:31:59;99764.70;;;5.14;72.88
61474;BME280;53694;49.784;30.150;2023-04-07T05:33:01;99772.66;;;5.45;71.78
61474;BME280;53694;49.784;30.150;2023-04-07T05:34:02;99769.84;;;5.80;70.68
61474;BME280;53694;49.784;30.150;2023-04-07T05:35:04;99775.98;;;6.15;69.75